M I D A S
Marine Information and Data Acquisition System
Tripno 1020 of the Zeeleeuw from 2005-12-08 07:33:22 to 2005-12-08 15:37:49
Back to CruiseResearch ActivitiesStationsMapUnderway DataData graphs

EquipmentUnitsComment
TimeDGPSUTC
LatitudeDGPSDM.mWGS84
LongitudeDGPSDM.mWGS84
TemperatureSBE03/SBE38deg celciusITS90
ConductivitySBE21S/mITS90
SalinitySBE21 Practical Salinity Units
ChlorophylAChelsea fluorimeterg/lCalibrated in Aceton
Missing or incorrect values are displayed as -999
Sea surface data collected by the RV Zeeleeuw from 2005-12-08 07:25:07 to 2005-12-08 15:48:48
Time Latitude Longitude Temperature Conductivity Salinity ChlorophylA
2005-12-08 07:26:12 51°13.603 2°56.069 -999 2.99302 28.241355 -0.74754
2005-12-08 07:27:12 51°13.618 2°56.013 -999 2.938826 27.612422 -0.612702
2005-12-08 07:28:12 51°13.639 2°55.944 -999 3.008637 28.391437 -0.680121
2005-12-08 07:29:12 51°13.674 2°55.869 -999 2.991675 28.256255 -0.71383
2005-12-08 07:30:13 51°13.735 2°55.77 -999 3.069252 29.049806 -0.680121
2005-12-08 07:31:12 51°13.798 2°55.67 -999 3.080114 29.161902 -0.680121
2005-12-08 07:32:12 51°13.886 2°55.629 -999 3.04815 28.851177 -0.646411
2005-12-08 07:33:12 51°13.943 2°55.652 -999 3.105253 29.425859 -0.612702
2005-12-08 07:34:12 51°13.983 2°55.556 -999 3.0737 29.081066 -0.646411
2005-12-08 07:35:12 51°14.114 2°55.428 -999 2.990125 28.283901 -0.578993
2005-12-08 07:36:11 51°14.257 2°55.263 -999 3.004294 28.432659 -0.646411
2005-12-08 07:37:12 51°14.395 2°55.031 -999 3.011948 28.517902 -0.578993
2005-12-08 07:38:12 51°14.568 2°54.86 -999 3.151705 29.899673 -0.612702
2005-12-08 07:39:12 51°14.755 2°54.677 -999 3.286226 31.200259 -0.680121
2005-12-08 07:40:12 51°14.955 2°54.528 -999 3.438591 32.549158 -0.74754
2005-12-08 07:41:12 51°15.165 2°54.411 -999 3.489839 32.972906 -0.781249
2005-12-08 07:42:12 51°15.371 2°54.277 -999 3.502264 33.080274 -0.74754
2005-12-08 07:43:12 51°15.579 2°54.143 -999 3.486526 32.943241 -0.74754
2005-12-08 07:44:12 51°15.788 2°54.011 -999 3.483316 32.927423 -0.74754
2005-12-08 07:45:12 51°15.999 2°53.878 -999 3.493049 33.027929 -0.74754
2005-12-08 07:46:12 51°16.209 2°53.746 -999 3.500504 33.08401 -0.71383
2005-12-08 07:47:12 51°16.419 2°53.617 -999 3.527425 33.334999 -0.680121
2005-12-08 07:48:12 51°16.63 2°53.488 -999 3.539126 33.448429 -0.680121
2005-12-08 07:49:12 51°16.844 2°53.371 -999 3.555383 33.588948 -0.680121
2005-12-08 07:50:12 51°17.058 2°53.277 -999 3.572262 33.700285 -0.680121
2005-12-08 07:51:12 51°17.285 2°53.257 -999 3.599291 33.897682 -0.680121
2005-12-08 07:52:12 51°17.513 2°53.271 -999 3.60685 33.914258 -0.680121
2005-12-08 07:53:12 51°17.729 2°53.384 -999 3.624871 34.061843 -0.680121
2005-12-08 07:54:12 51°17.924 2°53.569 -999 3.625699 34.06528 -0.646411
2005-12-08 07:55:12 51°18.114 2°53.767 -999 3.624975 34.068153 -0.646411
2005-12-08 07:56:12 51°18.287 2°54.003 -999 3.627875 34.09848 -0.646411
2005-12-08 07:57:12 51°18.461 2°54.237 -999 3.631085 34.125953 -0.646411
2005-12-08 07:58:12 51°18.636 2°54.468 -999 3.638232 34.198081 -0.612702
2005-12-08 07:59:12 51°18.812 2°54.697 -999 3.644653 34.267017 -0.612702
2005-12-08 08:00:12 51°18.987 2°54.922 -999 3.649107 34.320647 -0.612702
2005-12-08 08:01:12 51°19.161 2°55.148 -999 3.642893 34.282783 -0.578993
2005-12-08 08:02:12 51°19.335 2°55.37 -999 3.64134 34.294606 -0.578993
2005-12-08 08:03:12 51°19.509 2°55.592 -999 3.644965 34.357258 -0.578993
2005-12-08 08:04:12 51°19.684 2°55.81 -999 3.635022 34.274938 -0.545283
2005-12-08 08:05:12 51°19.858 2°56.03 -999 3.633572 34.272035 -0.545283
2005-12-08 08:06:12 51°20.03 2°56.249 -999 3.610581 34.099971 -0.477864
2005-12-08 08:07:12 51°20.197 2°56.477 -999 3.565533 33.772192 -0.444155
2005-12-08 08:08:12 51°20.365 2°56.706 -999 3.539439 33.618293 -0.410446
2005-12-08 08:09:12 51°20.532 2°56.935 -999 3.509825 33.418546 -0.376736
2005-12-08 08:10:12 51°20.701 2°57.162 -999 3.482388 33.234873 -0.343027
2005-12-08 08:11:12 51°20.87 2°57.391 -999 3.456402 33.048475 -0.343027
2005-12-08 08:12:12 51°21.039 2°57.621 -999 3.443357 32.954912 -0.343027
2005-12-08 08:13:12 51°21.21 2°57.852 -999 3.441494 32.951541 -0.343027
2005-12-08 08:14:12 51°21.379 2°58.085 -999 3.438803 32.944555 -0.376736
2005-12-08 08:15:12 51°21.546 2°58.324 -999 3.438389 32.947943 -0.376736
2005-12-08 08:16:12 51°21.706 2°58.576 -999 3.433419 32.908919 -0.376736
2005-12-08 08:17:12 51°21.865 2°58.831 -999 3.425345 32.841141 -0.376736
2005-12-08 08:18:12 51°22.024 2°59.088 -999 3.430935 32.920575 -0.376736
2005-12-08 08:19:12 51°22.185 2°59.341 -999 3.423378 32.859982 -0.376736
2005-12-08 08:20:12 51°22.344 2°59.596 -999 3.420169 32.848291 -0.376736
2005-12-08 08:21:12 51°22.503 2°59.849 -999 3.413647 32.802121 -0.376736
2005-12-08 08:22:12 51°22.665 3°0.104 -999 3.410853 32.793079 -0.376736
2005-12-08 08:23:12 51°22.826 3°0.359 -999 3.401329 32.71825 -0.376736
2005-12-08 08:24:12 51°22.986 3°0.614 -999 3.392427 32.644797 -0.376736
2005-12-08 08:25:12 51°23.146 3°0.869 -999 3.3887 32.627442 -0.376736
2005-12-08 08:26:12 51°23.313 3°1.114 -999 3.389322 32.651363 -0.410446
2005-12-08 08:27:12 51°23.48 3°1.359 -999 3.387251 32.647389 -0.410446
2005-12-08 08:28:12 51°23.645 3°1.604 -999 3.388183 32.669474 -0.410446
2005-12-08 08:29:12 51°23.811 3°1.847 -999 3.390668 32.697791 -0.444155
2005-12-08 08:30:12 51°23.976 3°2.092 -999 3.391599 32.713833 -0.444155
2005-12-08 08:31:12 51°24.142 3°2.336 -999 3.385699 32.661943 -0.444155
2005-12-08 08:32:12 51°24.307 3°2.58 -999 3.389736 32.709503 -0.444155
2005-12-08 08:33:12 51°24.473 3°2.826 -999 3.392428 32.731378 -0.444155
2005-12-08 08:34:12 51°24.638 3°3.07 -999 3.385803 32.676054 -0.477864
2005-12-08 08:35:12 51°24.803 3°3.311 -999 3.39957 32.79743 -0.477864
2005-12-08 08:36:12 51°24.968 3°3.554 -999 3.415305 32.924065 -0.477864
2005-12-08 08:37:12 51°25.134 3°3.801 -999 3.41427 32.910372 -0.511574
2005-12-08 08:38:12 51°25.301 3°4.048 -999 3.403918 32.839633 -0.511574
2005-12-08 08:39:12 51°25.467 3°4.294 -999 3.407852 32.874787 -0.511574
2005-12-08 08:40:12 51°25.634 3°4.54 -999 3.407541 32.87059 -0.511574
2005-12-08 08:41:12 51°25.802 3°4.784 -999 3.409922 32.897829 -0.511574
2005-12-08 08:42:12 51°25.969 3°5.029 -999 3.410647 32.904718 -0.511574
2005-12-08 08:43:12 51°26.138 3°5.27 -999 3.416962 32.963615 -0.511574
2005-12-08 08:44:12 51°26.307 3°5.512 -999 3.4269 33.035927 -0.511574
2005-12-08 08:45:12 51°26.475 3°5.753 -999 3.426278 33.028404 -0.511574
2005-12-08 08:46:12 51°26.642 3°5.994 -999 3.426589 33.032603 -0.511574
2005-12-08 08:47:12 51°26.809 3°6.234 -999 3.429074 33.059196 -0.477864
2005-12-08 08:48:12 51°26.976 3°6.471 -999 3.428452 33.0438 -0.477864
2005-12-08 08:49:12 51°27.143 3°6.709 -999 3.434975 33.107469 -0.477864
2005-12-08 08:50:12 51°27.309 3°6.946 -999 3.435182 33.112313 -0.477864
2005-12-08 08:51:12 51°27.476 3°7.181 -999 3.435078 33.115587 -0.477864
2005-12-08 08:52:12 51°27.638 3°7.422 -999 3.435906 33.12007 -0.477864
2005-12-08 08:53:12 51°27.754 3°7.649 -999 3.437252 33.134475 -0.511574
2005-12-08 08:54:12 51°27.831 3°7.795 -999 3.437563 33.143939 -0.511574
2005-12-08 08:55:12 51°27.861 3°7.834 -999 3.437666 33.145925 -0.511574
2005-12-08 08:56:13 51°27.877 3°7.827 -999 3.437666 33.149435 -0.511574
2005-12-08 08:57:12 51°27.892 3°7.817 -999 3.437356 33.146987 -0.511574
2005-12-08 08:58:12 51°27.877 3°7.854 -999 3.436321 33.13327 -0.511574
2005-12-08 08:59:12 51°27.828 3°7.791 -999 3.438805 33.15373 -0.511574
2005-12-08 09:00:12 51°27.819 3°7.76 -999 3.438081 33.152991 -0.511574
2005-12-08 09:01:12 51°27.83 3°7.739 -999 3.437045 33.140152 -0.511574
2005-12-08 09:02:12 51°27.843 3°7.717 -999 3.43777 33.149666 -0.511574
2005-12-08 09:03:12 51°27.855 3°7.697 -999 3.437873 33.148142 -0.511574
2005-12-08 09:04:12 51°27.865 3°7.676 -999 3.43953 33.145699 -0.511574
2005-12-08 09:05:12 51°27.876 3°7.655 -999 3.440772 33.148472 -0.511574
2005-12-08 09:06:12 51°27.888 3°7.633 -999 3.439012 33.148052 -0.511574
2005-12-08 09:07:12 51°27.899 3°7.612 -999 3.437977 33.14311 -0.511574
2005-12-08 09:08:12 51°27.91 3°7.59 -999 3.437873 33.147265 -0.511574
2005-12-08 09:09:12 51°27.921 3°7.568 -999 3.436735 33.136827 -0.511574
2005-12-08 09:10:12 51°27.931 3°7.547 -999 3.437563 33.140431 -0.511574
2005-12-08 09:11:13 51°27.941 3°7.524 -999 3.436217 33.126901 -0.511574
2005-12-08 09:12:12 51°27.951 3°7.503 -999 3.437149 33.133367 -0.511574
2005-12-08 09:13:12 51°27.962 3°7.48 -999 3.437666 33.137154 -0.511574
2005-12-08 09:14:12 51°27.971 3°7.456 -999 3.437356 33.13646 -0.511574
2005-12-08 09:15:12 51°27.975 3°7.434 -999 3.438287 33.14468 -0.511574
2005-12-08 09:16:12 51°27.942 3°7.451 -999 3.436631 33.130457 -0.511574
2005-12-08 09:17:12 51°27.918 3°7.558 -999 3.43632 33.129762 -0.477864
2005-12-08 09:18:12 51°27.87 3°7.689 -999 3.436113 33.125792 -0.511574
2005-12-08 09:19:12 51°27.816 3°7.83 -999 3.435699 33.12399 -0.511574
2005-12-08 09:20:12 51°27.815 3°7.9 -999 3.436113 33.131053 -0.477864
2005-12-08 09:21:11 51°27.827 3°7.887 -999 3.435906 33.129714 -0.511574
2005-12-08 09:22:11 51°27.839 3°7.867 -999 3.436424 33.137887 -0.511574
2005-12-08 09:23:12 51°27.852 3°7.842 -999 3.435699 33.131005 -0.511574
2005-12-08 09:24:12 51°27.865 3°7.819 -999 3.434664 33.120797 -0.511574
2005-12-08 09:25:12 51°27.879 3°7.796 -999 3.436631 33.141859 -0.511574
2005-12-08 09:26:12 51°27.892 3°7.774 -999 3.436528 33.141628 -0.511574
2005-12-08 09:27:12 51°27.906 3°7.753 -999 3.435906 33.133222 -0.511574
2005-12-08 09:28:12 51°27.919 3°7.732 -999 3.437252 33.140614 -0.511574
2005-12-08 09:29:12 51°27.932 3°7.71 -999 3.437252 33.142369 -0.511574
2005-12-08 09:30:12 51°27.943 3°7.686 -999 3.43777 33.14177 -0.511574
2005-12-08 09:31:11 51°27.953 3°7.662 -999 3.437666 33.143293 -0.511574
2005-12-08 09:32:13 51°27.93 3°7.65 -999 3.437459 33.141077 -0.511574
2005-12-08 09:33:12 51°27.892 3°7.712 -999 3.437045 33.141906 -0.511574
2005-12-08 09:34:12 51°27.84 3°7.8 -999 3.436735 33.139458 -0.511574
2005-12-08 09:35:12 51°27.786 3°7.873 -999 3.435803 33.13299 -0.477864
2005-12-08 09:36:12 51°27.778 3°7.898 -999 3.436217 33.134793 -0.477864
2005-12-08 09:37:12 51°27.782 3°7.887 -999 3.435803 33.131236 -0.511574
2005-12-08 09:38:12 51°27.788 3°7.866 -999 3.433525 33.106851 -0.511574
2005-12-08 09:39:12 51°27.795 3°7.841 -999 3.435596 33.127265 -0.477864
2005-12-08 09:40:12 51°27.804 3°7.813 -999 3.434975 33.121492 -0.511574
2005-12-08 09:41:12 51°27.814 3°7.785 -999 3.435596 33.120251 -0.477864
2005-12-08 09:42:11 51°27.825 3°7.759 -999 3.435803 33.111952 -0.511574
2005-12-08 09:43:12 51°27.834 3°7.733 -999 3.43632 33.113987 -0.511574
2005-12-08 09:44:12 51°27.843 3°7.708 -999 3.436527 33.112699 -0.511574
2005-12-08 09:45:12 51°27.851 3°7.685 -999 3.437459 33.125296 -0.511574
2005-12-08 09:46:12 51°27.862 3°7.661 -999 3.436838 33.123907 -0.511574
2005-12-08 09:47:12 51°27.871 3°7.636 -999 3.436217 33.121641 -0.511574
2005-12-08 09:48:12 51°27.879 3°7.611 -999 3.435803 33.122468 -0.477864
2005-12-08 09:49:12 51°27.867 3°7.593 -999 3.433939 33.106026 -0.511574
2005-12-08 09:50:12 51°27.849 3°7.632 -999 3.435492 33.126157 -0.511574
2005-12-08 09:51:11 51°27.858 3°7.728 -999 3.435389 33.123295 -0.477864
2005-12-08 09:52:12 51°27.824 3°7.824 -999 3.435596 33.122005 -0.477864
2005-12-08 09:53:12 51°27.816 3°7.889 -999 3.434768 33.118398 -0.477864
2005-12-08 09:54:12 51°27.82 3°7.905 -999 3.434871 33.117753 -0.477864
2005-12-08 09:55:12 51°27.827 3°7.889 -999 3.43425 33.11461 -0.477864
2005-12-08 09:56:12 51°27.835 3°7.865 -999 3.433732 33.112574 -0.477864
2005-12-08 09:57:12 51°27.843 3°7.842 -999 3.433008 33.101309 -0.477864
2005-12-08 09:58:12 51°27.853 3°7.817 -999 3.433318 33.103758 -0.477864
2005-12-08 09:59:12 51°27.861 3°7.793 -999 3.435492 33.113009 -0.477864
2005-12-08 10:00:12 51°27.869 3°7.768 -999 3.436424 33.114219 -0.477864
2005-12-08 10:01:12 51°27.875 3°7.743 -999 3.436113 33.116152 -0.477864
2005-12-08 10:02:12 51°27.881 3°7.719 -999 3.436113 33.115276 -0.477864
2005-12-08 10:03:12 51°27.887 3°7.697 -999 3.435906 33.117441 -0.477864
2005-12-08 10:04:12 51°27.892 3°7.672 -999 3.435699 33.11873 -0.477864
2005-12-08 10:05:12 51°27.897 3°7.648 -999 3.435389 33.116282 -0.477864
2005-12-08 10:06:12 51°27.903 3°7.624 -999 3.435699 33.115225 -0.511574
2005-12-08 10:07:12 51°27.906 3°7.6 -999 3.435699 33.116101 -0.477864
2005-12-08 10:08:12 51°27.879 3°7.629 -999 3.435182 33.114942 -0.477864
2005-12-08 10:09:12 51°27.913 3°7.717 -999 3.434354 33.112212 -0.477864
2005-12-08 10:10:12 51°27.977 3°7.885 -999 3.434768 33.108758 -0.477864
2005-12-08 10:11:12 51°28.025 3°8.049 -999 3.435078 33.112082 -0.444155
2005-12-08 10:12:12 51°28.001 3°8.113 -999 3.433215 33.105279 -0.444155
2005-12-08 10:13:13 51°27.978 3°8.102 -999 3.430937 33.091408 -0.444155
2005-12-08 10:14:12 51°27.979 3°8.08 -999 3.429902 33.083826 -0.444155
2005-12-08 10:15:12 51°27.983 3°8.056 -999 3.429281 33.079803 -0.444155
2005-12-08 10:16:12 51°27.987 3°8.034 -999 3.430213 33.079267 -0.477864
2005-12-08 10:17:12 51°27.99 3°8.012 -999 3.431041 33.082879 -0.477864
2005-12-08 10:18:12 51°27.992 3°7.992 -999 3.431662 33.085149 -0.477864
2005-12-08 10:19:12 51°27.995 3°7.969 -999 3.431869 33.08649 -0.477864
2005-12-08 10:20:12 51°27.984 3°7.962 -999 3.432283 33.086544 -0.477864
2005-12-08 10:21:12 51°27.985 3°8.023 -999 3.432076 33.088706 -0.477864
2005-12-08 10:22:12 51°28.064 3°8.014 -999 3.430834 33.08329 -0.444155
2005-12-08 10:23:12 51°28.058 3°7.861 -999 3.429177 33.077818 -0.444155
2005-12-08 10:24:12 51°27.986 3°7.735 -999 3.43073 33.08919 -0.444155
2005-12-08 10:25:12 51°27.916 3°7.839 -999 3.43249 33.104531 -0.444155
2005-12-08 10:26:12 51°27.834 3°8.038 -999 3.431765 33.095895 -0.444155
2005-12-08 10:27:12 51°27.736 3°8.239 -999 3.426796 33.054069 -0.444155
2005-12-08 10:28:12 51°27.651 3°8.456 -999 3.420896 33.003123 -0.444155
2005-12-08 10:29:12 51°27.607 3°8.607 -999 3.415098 32.959383 -0.444155
2005-12-08 10:30:12 51°27.587 3°8.629 -999 3.412303 32.938173 -0.444155
2005-12-08 10:31:13 51°27.598 3°8.612 -999 3.410233 32.926469 -0.444155
2005-12-08 10:32:12 51°27.592 3°8.583 -999 3.409923 32.924014 -0.444155
2005-12-08 10:33:12 51°27.589 3°8.554 -999 3.409923 32.922267 -0.444155
2005-12-08 10:34:12 51°27.587 3°8.532 -999 3.409094 32.915138 -0.444155
2005-12-08 10:35:12 51°27.587 3°8.51 -999 3.408784 32.910937 -0.444155
2005-12-08 10:36:12 51°27.59 3°8.488 -999 3.408473 32.905863 -0.444155
2005-12-08 10:37:12 51°27.584 3°8.464 -999 3.40868 32.901971 -0.444155
2005-12-08 10:38:12 51°27.563 3°8.382 -999 3.40868 32.897608 -0.444155
2005-12-08 10:39:12 51°27.612 3°8.303 -999 3.407334 32.887553 -0.444155
2005-12-08 10:40:12 51°27.673 3°8.359 -999 3.407541 32.889771 -0.444155
2005-12-08 10:41:12 51°27.636 3°8.517 -999 3.408887 32.907681 -0.444155
2005-12-08 10:42:12 51°27.623 3°8.617 -999 3.408163 32.9069 -0.444155
2005-12-08 10:43:12 51°27.62 3°8.625 -999 3.407438 32.899134 -0.444155
2005-12-08 10:44:12 51°27.619 3°8.607 -999 3.406713 32.895732 -0.444155
2005-12-08 10:45:12 51°27.619 3°8.583 -999 3.406713 32.896605 -0.444155
2005-12-08 10:46:12 51°27.62 3°8.557 -999 3.406713 32.895732 -0.444155
2005-12-08 10:47:12 51°27.62 3°8.53 -999 3.40661 32.890258 -0.444155
2005-12-08 10:48:12 51°27.62 3°8.505 -999 3.406713 32.88875 -0.444155
2005-12-08 10:49:12 51°27.62 3°8.482 -999 3.40661 32.885023 -0.444155
2005-12-08 10:50:12 51°27.62 3°8.458 -999 3.40692 32.883117 -0.444155
2005-12-08 10:51:12 51°27.583 3°8.419 -999 3.407645 32.882158 -0.444155
2005-12-08 10:52:13 51°27.529 3°8.224 -999 3.407127 32.880102 -0.444155
2005-12-08 10:53:12 51°27.625 3°8.003 -999 3.403918 32.851828 -0.444155
2005-12-08 10:54:12 51°27.776 3°7.91 -999 3.404953 32.866405 -0.444155
2005-12-08 10:55:12 51°27.832 3°7.881 -999 3.411372 32.927317 -0.410446
2005-12-08 10:56:13 51°27.833 3°7.875 -999 3.414891 32.955417 -0.444155
2005-12-08 10:57:13 51°27.829 3°7.89 -999 3.416341 32.967447 -0.444155
2005-12-08 10:58:12 51°27.815 3°7.838 -999 3.416962 32.973227 -0.410446
2005-12-08 10:59:12 51°27.822 3°7.815 -999 3.41779 32.977728 -0.444155
2005-12-08 11:00:12 51°27.811 3°7.8 -999 3.418308 32.981524 -0.444155
2005-12-08 11:01:12 51°27.783 3°7.853 -999 3.418308 32.983272 -0.444155
2005-12-08 11:02:12 51°27.771 3°7.897 -999 3.4181 32.98018 -0.444155
2005-12-08 11:03:13 51°27.774 3°7.878 -999 3.417583 32.972888 -0.410446
2005-12-08 11:04:13 51°27.777 3°7.853 -999 3.41779 32.976854 -0.410446
2005-12-08 11:05:12 51°27.779 3°7.828 -999 3.417893 32.979711 -0.410446
2005-12-08 11:06:12 51°27.78 3°7.802 -999 3.417272 32.97131 -0.410446
2005-12-08 11:07:12 51°27.781 3°7.776 -999 3.417583 32.967646 -0.444155
2005-12-08 11:08:13 51°27.781 3°7.751 -999 3.418411 32.965159 -0.444155
2005-12-08 11:09:13 51°27.78 3°7.725 -999 3.419757 32.972579 -0.410446
2005-12-08 11:10:12 51°27.773 3°7.698 -999 3.41986 32.978054 -0.444155
2005-12-08 11:11:12 51°27.753 3°7.642 -999 3.419136 32.974664 -0.444155
2005-12-08 11:12:12 51°27.764 3°7.552 -999 3.418618 32.975237 -0.444155
2005-12-08 11:13:12 51°27.814 3°7.512 -999 3.415823 32.944436 -0.444155
2005-12-08 11:14:12 51°27.855 3°7.545 -999 3.420171 32.981379 -0.444155
2005-12-08 11:15:12 51°27.853 3°7.611 -999 3.423069 33.011538 -0.444155
2005-12-08 11:16:13 51°27.818 3°7.67 -999 3.424519 33.02968 -0.410446
2005-12-08 11:17:13 51°27.82 3°7.746 -999 3.422552 33.015615 -0.410446
2005-12-08 11:18:12 51°27.839 3°7.834 -999 3.421827 33.008729 -0.410446
2005-12-08 11:19:12 51°27.859 3°7.923 -999 3.418825 32.980949 -0.410446
2005-12-08 11:20:12 51°27.871 3°7.976 -999 3.416134 32.959113 -0.410446
2005-12-08 11:21:12 51°27.877 3°8.006 -999 3.414374 32.948125 -0.410446
2005-12-08 11:22:12 51°27.88 3°8.019 -999 3.41427 32.943522 -0.410446
2005-12-08 11:23:12 51°27.881 3°8.019 -999 3.414167 32.945033 -0.410446
2005-12-08 11:24:12 51°27.881 3°8.012 -999 3.414477 32.94574 -0.444155
2005-12-08 11:25:13 51°27.879 3°7.996 -999 3.414581 32.948596 -0.410446
2005-12-08 11:26:13 51°27.879 3°7.974 -999 3.414891 32.951922 -0.410446
2005-12-08 11:27:12 51°27.877 3°7.946 -999 3.415305 32.956358 -0.410446
2005-12-08 11:28:13 51°27.876 3°7.914 -999 3.415098 32.955014 -0.410446
2005-12-08 11:29:12 51°27.877 3°7.884 -999 3.414684 32.950578 -0.410446
2005-12-08 11:30:13 51°27.879 3°7.856 -999 3.41427 32.947016 -0.410446
2005-12-08 11:31:12 51°27.879 3°7.829 -999 3.41427 32.944396 -0.410446
2005-12-08 11:32:12 51°27.879 3°7.803 -999 3.414167 32.943287 -0.410446
2005-12-08 11:33:13 51°27.878 3°7.776 -999 3.414374 32.941138 -0.410446
2005-12-08 11:34:12 51°27.875 3°7.749 -999 3.414891 32.941443 -0.444155
2005-12-08 11:35:12 51°27.872 3°7.723 -999 3.415098 32.942787 -0.410446
2005-12-08 11:36:12 51°27.868 3°7.697 -999 3.415409 32.942621 -0.444155
2005-12-08 11:37:13 51°27.863 3°7.67 -999 3.415409 32.944366 -0.410446
2005-12-08 11:38:12 51°27.857 3°7.644 -999 3.415305 32.942385 -0.410446
2005-12-08 11:39:13 51°27.851 3°7.617 -999 3.415512 32.947221 -0.410446
2005-12-08 11:40:12 51°27.846 3°7.59 -999 3.415926 32.950782 -0.410446
2005-12-08 11:41:12 51°27.839 3°7.563 -999 3.416133 32.952999 -0.444155
2005-12-08 11:42:12 51°27.831 3°7.535 -999 3.416341 32.955216 -0.410446
2005-12-08 11:43:12 51°27.824 3°7.509 -999 3.416858 32.960759 -0.410446
2005-12-08 11:44:13 51°27.815 3°7.481 -999 3.417893 32.96573 -0.444155
2005-12-08 11:45:12 51°27.806 3°7.456 -999 3.4181 32.967947 -0.410446
2005-12-08 11:46:13 51°27.797 3°7.428 -999 3.418825 32.973085 -0.410446
2005-12-08 11:47:12 51°27.786 3°7.4 -999 3.41986 32.981548 -0.410446
2005-12-08 11:48:13 51°27.778 3°7.374 -999 3.421413 32.995552 -0.410446
2005-12-08 11:49:12 51°27.767 3°7.345 -999 3.422345 33.001157 -0.410446
2005-12-08 11:50:13 51°27.755 3°7.318 -999 3.423069 33.002797 -0.410446
2005-12-08 11:51:13 51°27.724 3°7.309 -999 3.423069 33.00367 -0.410446
2005-12-08 11:52:12 51°27.683 3°7.328 -999 3.422655 33.003608 -0.410446
2005-12-08 11:53:13 51°27.597 3°7.363 -999 3.421827 32.99649 -0.410446
2005-12-08 11:54:13 51°27.482 3°7.488 -999 3.4181 32.967947 -0.410446
2005-12-08 11:55:12 51°27.437 3°7.692 -999 3.410854 32.910424 -0.410446
2005-12-08 11:56:13 51°27.529 3°7.832 -999 3.403918 32.854443 -0.410446
2005-12-08 11:57:13 51°27.675 3°7.815 -999 3.40102 32.826876 -0.410446
2005-12-08 11:58:12 51°27.812 3°7.812 -999 3.407541 32.875819 -0.410446
2005-12-08 11:59:12 51°27.875 3°7.81 -999 3.411579 32.917313 -0.410446
2005-12-08 12:00:13 51°27.872 3°7.782 -999 3.4122 32.925711 -0.410446
2005-12-08 12:01:12 51°27.881 3°7.729 -999 3.413339 32.937909 -0.410446
2005-12-08 12:02:12 51°27.832 3°7.625 -999 3.41396 32.947183 -0.410446
2005-12-08 12:03:12 51°27.773 3°7.698 -999 3.416134 32.963482 -0.410446
2005-12-08 12:04:12 51°27.816 3°7.789 -999 3.416858 32.96338 -0.410446
2005-12-08 12:05:12 51°27.853 3°7.824 -999 3.415098 32.935805 -0.410446
2005-12-08 12:06:12 51°27.852 3°7.816 -999 3.411682 32.908825 -0.410446
2005-12-08 12:07:13 51°27.847 3°7.801 -999 3.410854 32.907807 -0.410446
2005-12-08 12:08:12 51°27.841 3°7.78 -999 3.410336 32.904008 -0.410446
2005-12-08 12:09:13 51°27.835 3°7.758 -999 3.410854 32.910424 -0.410446
2005-12-08 12:10:12 51°27.831 3°7.739 -999 3.411579 32.915568 -0.410446
2005-12-08 12:11:13 51°27.83 3°7.726 -999 3.412096 32.92373 -0.410446
2005-12-08 12:12:12 51°27.832 3°7.716 -999 3.414891 32.945808 -0.410446
2005-12-08 12:13:13 51°27.836 3°7.709 -999 3.416133 32.952999 -0.410446
2005-12-08 12:14:13 51°27.842 3°7.705 -999 3.41427 32.931301 -0.410446
2005-12-08 12:15:13 51°27.847 3°7.704 -999 3.411889 32.907553 -0.410446
2005-12-08 12:16:13 51°27.852 3°7.706 -999 3.409922 32.889111 -0.410446
2005-12-08 12:17:13 51°27.854 3°7.748 -999 3.408059 32.873518 -0.376736
2005-12-08 12:18:12 51°27.833 3°7.812 -999 3.401641 32.824822 -0.376736
2005-12-08 12:19:12 51°27.832 3°7.849 -999 3.397811 32.789891 -0.343027
2005-12-08 12:20:12 51°27.835 3°7.865 -999 3.395533 32.768978 -0.343027
2005-12-08 12:21:13 51°27.843 3°7.874 -999 3.393773 32.755345 -0.343027
2005-12-08 12:22:13 51°27.848 3°7.881 -999 3.392531 32.745515 -0.343027
2005-12-08 12:23:12 51°27.852 3°7.884 -999 3.391186 32.733707 -0.343027
2005-12-08 12:24:12 51°27.852 3°7.879 -999 3.39015 32.724356 -0.343027
2005-12-08 12:25:12 51°27.849 3°7.866 -999 3.389426 32.716594 -0.343027
2005-12-08 12:26:12 51°27.846 3°7.85 -999 3.388598 32.710328 -0.343027
2005-12-08 12:27:12 51°27.844 3°7.828 -999 3.388287 32.709606 -0.343027
2005-12-08 12:28:12 51°27.839 3°7.803 -999 3.387977 32.709752 -0.343027
2005-12-08 12:29:12 51°27.836 3°7.777 -999 3.387873 32.711249 -0.343027
2005-12-08 12:30:13 51°27.861 3°7.806 -999 3.387977 32.708884 -0.343027
2005-12-08 12:31:12 51°27.834 3°7.89 -999 3.387356 32.701362 -0.309317
2005-12-08 12:32:13 51°27.757 3°7.812 -999 3.38425 32.678506 -0.309317
2005-12-08 12:33:13 51°27.801 3°7.698 -999 3.383319 32.672862 -0.309317
2005-12-08 12:34:12 51°27.835 3°7.782 -999 3.389737 32.73556 -0.309317
2005-12-08 12:35:13 51°27.807 3°7.815 -999 3.390668 32.755983 -0.309317
2005-12-08 12:36:13 51°27.79 3°7.794 -999 3.394291 32.790473 -0.309317
2005-12-08 12:37:12 51°27.771 3°7.781 -999 3.395741 32.80514 -0.275608
2005-12-08 12:38:12 51°27.751 3°7.779 -999 3.395016 32.797371 -0.275608
2005-12-08 12:39:12 51°27.741 3°7.788 -999 3.393877 32.782551 -0.309317
2005-12-08 12:40:13 51°27.768 3°7.788 -999 3.390772 32.753612 -0.309317
2005-12-08 12:41:13 51°27.807 3°7.772 -999 3.387563 32.720084 -0.309317
2005-12-08 12:42:13 51°27.816 3°7.78 -999 3.385493 32.703107 -0.309317
2005-12-08 12:43:13 51°27.805 3°7.807 -999 3.385596 32.702479 -0.309317
2005-12-08 12:44:12 51°27.788 3°7.793 -999 3.385907 32.706676 -0.309317
2005-12-08 12:45:13 51°27.767 3°7.808 -999 3.388287 32.733938 -0.309317
2005-12-08 12:46:12 51°27.762 3°7.828 -999 3.388184 32.731958 -0.309317
2005-12-08 12:47:13 51°27.759 3°7.83 -999 3.387873 32.72689 -0.309317
2005-12-08 12:48:13 51°27.755 3°7.82 -999 3.388184 32.727611 -0.309317
2005-12-08 12:49:13 51°27.779 3°7.798 -999 3.388287 32.72959 -0.309317
2005-12-08 12:50:13 51°27.829 3°7.772 -999 3.389116 32.736728 -0.309317
2005-12-08 12:51:12 51°27.844 3°7.791 -999 3.389115 32.728904 -0.309317
2005-12-08 12:52:13 51°27.83 3°7.811 -999 3.389322 32.731992 -0.343027
2005-12-08 12:53:13 51°27.809 3°7.798 -999 3.390565 32.746174 -0.309317
2005-12-08 12:54:12 51°27.785 3°7.782 -999 3.391393 32.75505 -0.309317
2005-12-08 12:55:12 51°27.76 3°7.767 -999 3.3916 32.758139 -0.309317
2005-12-08 12:56:13 51°27.736 3°7.751 -999 3.392324 32.760686 -0.309317
2005-12-08 12:57:12 51°27.714 3°7.736 -999 3.392738 32.761644 -0.343027
2005-12-08 12:58:13 51°27.696 3°7.756 -999 3.392738 32.760774 -0.343027
2005-12-08 12:59:13 51°27.735 3°7.792 -999 3.392428 32.760926 -0.343027
2005-12-08 13:00:13 51°27.794 3°7.856 -999 3.395016 32.781699 -0.309317
2005-12-08 13:01:13 51°27.825 3°7.87 -999 3.387977 32.754976 -0.309317
2005-12-08 13:02:12 51°27.825 3°7.861 -999 3.379179 32.698852 -0.309317
2005-12-08 13:03:12 51°27.819 3°7.847 -999 3.376695 32.686973 -0.309317
2005-12-08 13:04:13 51°27.809 3°7.828 -999 3.375452 32.677113 -0.309317
2005-12-08 13:05:12 51°27.796 3°7.804 -999 3.374728 32.674553 -0.309317
2005-12-08 13:06:12 51°27.786 3°7.786 -999 3.373693 32.668655 -0.309317
2005-12-08 13:07:12 51°27.779 3°7.82 -999 3.373382 32.66619 -0.309317
2005-12-08 13:08:13 51°27.805 3°7.862 -999 3.371002 32.653665 -0.309317
2005-12-08 13:09:13 51°27.808 3°7.852 -999 3.37007 32.641042 -0.309317
2005-12-08 13:10:13 51°27.798 3°7.837 -999 3.368621 32.629819 -0.309317
2005-12-08 13:11:13 51°27.784 3°7.822 -999 3.36831 32.629092 -0.309317
2005-12-08 13:12:13 51°27.795 3°7.815 -999 3.368207 32.628849 -0.309317
2005-12-08 13:13:13 51°27.783 3°7.784 -999 3.368517 32.630447 -0.309317
2005-12-08 13:14:12 51°27.766 3°7.748 -999 3.369345 32.636736 -0.275608
2005-12-08 13:15:13 51°27.747 3°7.711 -999 3.372244 32.660919 -0.241899
2005-12-08 13:16:12 51°27.727 3°7.677 -999 3.372968 32.665223 -0.275608
2005-12-08 13:17:13 51°27.706 3°7.643 -999 3.371933 32.655841 -0.275608
2005-12-08 13:18:13 51°27.724 3°7.622 -999 3.371623 32.647284 -0.275608
2005-12-08 13:19:13 51°27.719 3°7.702 -999 3.368517 32.624357 -0.309317
2005-12-08 13:20:13 51°27.693 3°7.877 -999 3.366551 32.614529 -0.275608
2005-12-08 13:21:13 51°27.678 3°8.093 -999 3.369138 32.634511 -0.275608
2005-12-08 13:22:13 51°27.659 3°8.265 -999 3.368207 32.62276 -0.309317
2005-12-08 13:23:13 51°27.642 3°8.381 -999 3.365826 32.605002 -0.309317
2005-12-08 13:24:11 51°27.628 3°8.512 -999 3.365723 32.605628 -0.275608
2005-12-08 13:25:12 51°27.619 3°8.607 -999 3.366654 32.613902 -0.275608
2005-12-08 13:26:12 51°27.594 3°8.595 -999 3.367482 32.624542 -0.275608
2005-12-08 13:27:13 51°27.572 3°8.594 -999 3.367793 32.62962 -0.275608
2005-12-08 13:28:13 51°27.558 3°8.597 -999 3.368207 32.6332 -0.275608
2005-12-08 13:29:13 51°27.546 3°8.585 -999 3.368621 32.631559 -0.275608
2005-12-08 13:30:13 51°27.564 3°8.569 -999 3.368724 32.630061 -0.275608
2005-12-08 13:31:13 51°27.642 3°8.55 -999 3.36831 32.624742 -0.275608
2005-12-08 13:32:13 51°27.645 3°8.517 -999 3.366861 32.611778 -0.309317
2005-12-08 13:33:13 51°27.638 3°8.495 -999 3.365309 32.602048 -0.275608
2005-12-08 13:34:12 51°27.644 3°8.548 -999 3.366137 32.594433 -0.275608
2005-12-08 13:35:13 51°27.613 3°8.569 -999 3.363135 32.586508 -0.275608
2005-12-08 13:36:12 51°27.587 3°8.548 -999 3.363031 32.588873 -0.275608
2005-12-08 13:37:13 51°27.552 3°8.573 -999 3.364377 32.6016 -0.241899
2005-12-08 13:38:13 51°27.529 3°8.597 -999 3.363756 32.594054 -0.275608
2005-12-08 13:39:13 51°27.528 3°8.613 -999 3.363445 32.588977 -0.275608
2005-12-08 13:40:13 51°27.528 3°8.599 -999 3.363135 32.586508 -0.275608
2005-12-08 13:41:12 51°27.522 3°8.576 -999 3.363549 32.585743 -0.309317
2005-12-08 13:42:13 51°27.51 3°8.549 -999 3.363859 32.586473 -0.309317
2005-12-08 13:43:13 51°27.523 3°8.518 -999 3.364377 32.589428 -0.309317
2005-12-08 13:44:13 51°27.624 3°8.47 -999 3.366344 32.603609 -0.309317
2005-12-08 13:45:13 51°27.777 3°8.392 -999 3.368517 32.635668 -0.275608
2005-12-08 13:46:13 51°27.93 3°8.267 -999 3.366861 32.628308 -0.275608
2005-12-08 13:47:13 51°28.054 3°8.073 -999 3.365412 32.610988 -0.275608
2005-12-08 13:48:13 51°28.059 3°7.923 -999 3.363756 32.595793 -0.275608
2005-12-08 13:49:13 51°28.037 3°7.911 -999 3.362721 32.582927 -0.275608
2005-12-08 13:50:13 51°28.014 3°7.895 -999 3.365102 32.598954 -0.17448
2005-12-08 13:51:13 51°27.99 3°7.871 -999 3.366447 32.609068 -0.14077
2005-12-08 13:52:13 51°27.964 3°7.846 -999 3.367586 32.616086 -0.073352
2005-12-08 13:53:12 51°27.938 3°7.82 -999 3.369966 32.6321 0.027777
2005-12-08 13:54:13 51°27.912 3°7.791 -999 3.370795 32.637518 0.027777
2005-12-08 13:55:12 51°27.887 3°7.763 -999 3.370794 32.635778 -0.005933
2005-12-08 13:56:12 51°27.861 3°7.733 -999 3.369345 32.625428 -0.039642
2005-12-08 13:57:12 51°27.837 3°7.703 -999 3.368 32.615318 -0.107061
2005-12-08 13:58:13 51°27.811 3°7.672 -999 3.367172 32.605553 -0.14077
2005-12-08 13:59:13 51°27.786 3°7.642 -999 3.365619 32.597561 -0.17448
2005-12-08 14:00:12 51°27.761 3°7.612 -999 3.36448 32.589672 -0.208189
2005-12-08 14:01:12 51°27.755 3°7.556 -999 3.36448 32.588803 -0.208189
2005-12-08 14:02:13 51°27.814 3°7.568 -999 3.364687 32.585814 -0.241899
2005-12-08 14:03:12 51°27.873 3°7.667 -999 3.363135 32.588247 -0.241899
2005-12-08 14:04:13 51°27.948 3°7.803 -999 3.363652 32.586856 -0.275608
2005-12-08 14:05:13 51°28.02 3°7.938 -999 3.366344 32.607956 -0.275608
2005-12-08 14:06:13 51°28.032 3°8.007 -999 3.364584 32.590784 -0.275608
2005-12-08 14:07:13 51°28.006 3°8 -999 3.363135 32.577818 -0.309317
2005-12-08 14:08:13 51°27.975 3°7.985 -999 3.362928 32.575593 -0.275608
2005-12-08 14:09:13 51°27.942 3°7.967 -999 3.36417 32.581122 -0.275608
2005-12-08 14:10:13 51°27.911 3°7.95 -999 3.363963 32.578029 -0.275608
2005-12-08 14:11:13 51°27.88 3°7.933 -999 3.363445 32.575942 -0.275608
2005-12-08 14:12:13 51°27.851 3°7.917 -999 3.363238 32.574587 -0.275608
2005-12-08 14:13:13 51°27.816 3°7.91 -999 3.363238 32.574587 -0.309317
2005-12-08 14:14:13 51°27.719 3°7.966 -999 3.363135 32.573474 -0.309317
2005-12-08 14:15:12 51°27.524 3°7.951 -999 3.363445 32.574205 -0.275608
2005-12-08 14:16:13 51°27.325 3°7.746 -999 3.366343 32.588839 -0.17448
2005-12-08 14:17:13 51°27.123 3°7.549 -999 3.371623 32.645544 0.061486
2005-12-08 14:18:13 51°26.926 3°7.345 -999 3.368621 32.628079 0.027777
2005-12-08 14:19:13 51°26.73 3°7.137 -999 3.368931 32.627937 -0.073352
2005-12-08 14:20:12 51°26.538 3°6.93 -999 3.374728 32.673682 -0.073352
2005-12-08 14:21:12 51°26.342 3°6.722 -999 3.381042 32.723215 -0.073352
2005-12-08 14:22:13 51°26.141 3°6.509 -999 3.391083 32.796145 -0.039642
2005-12-08 14:23:13 51°25.946 3°6.297 -999 3.400503 32.859691 -0.107061
2005-12-08 14:24:13 51°25.747 3°6.099 -999 3.409405 32.920214 -0.17448
2005-12-08 14:25:13 51°25.548 3°5.905 -999 3.412096 32.929841 -0.208189
2005-12-08 14:26:13 51°25.351 3°5.712 -999 3.412096 32.921111 -0.241899
2005-12-08 14:27:13 51°25.153 3°5.517 -999 3.414581 32.939863 -0.275608
2005-12-08 14:28:14 51°24.953 3°5.32 -999 3.4181 32.964454 -0.275608
2005-12-08 14:29:13 51°24.762 3°5.13 -999 3.413856 32.92774 -0.275608
2005-12-08 14:30:14 51°24.565 3°4.935 -999 3.40516 32.852065 -0.275608
2005-12-08 14:31:14 51°24.373 3°4.741 -999 3.396775 32.764898 -0.275608
2005-12-08 14:32:14 51°24.182 3°4.554 -999 3.385078 32.654428 -0.241899
2005-12-08 14:33:14 51°23.992 3°4.367 -999 3.380523 32.614331 -0.275608
2005-12-08 14:34:13 51°23.803 3°4.182 -999 3.377107 32.579495 -0.241899
2005-12-08 14:35:14 51°23.611 3°3.987 -999 3.360132 32.433143 -0.275608
2005-12-08 14:36:13 51°23.427 3°3.793 -999 3.33674 32.235043 -0.241899
2005-12-08 14:37:13 51°23.244 3°3.584 -999 3.324216 32.129124 -0.275608
2005-12-08 14:38:14 51°23.07 3°3.349 -999 3.324423 32.13819 -0.241899
2005-12-08 14:39:14 51°22.905 3°3.109 -999 3.333324 32.218173 -0.17448
2005-12-08 14:40:13 51°22.741 3°2.867 -999 3.336326 32.249489 -0.17448
2005-12-08 14:41:14 51°22.571 3°2.618 -999 3.344917 32.327824 -0.073352
2005-12-08 14:42:14 51°22.407 3°2.369 -999 3.348022 32.355083 0.027777
2005-12-08 14:43:14 51°22.25 3°2.109 -999 3.341604 32.294042 -0.005933
2005-12-08 14:44:14 51°22.091 3°1.852 -999 3.329391 32.181162 -0.039642
2005-12-08 14:45:14 51°21.933 3°1.601 -999 3.312624 32.02028 0.027777
2005-12-08 14:46:14 51°21.774 3°1.346 -999 3.309726 32.001166 -0.039642
2005-12-08 14:47:13 51°21.617 3°1.096 -999 3.311279 32.019515 -0.073352
2005-12-08 14:48:14 51°21.455 3°0.837 -999 3.310658 32.006031 -0.073352
2005-12-08 14:49:14 51°21.307 3°0.571 -999 3.31221 32.003051 -0.107061
2005-12-08 14:50:14 51°21.158 3°0.306 -999 3.315418 32.04852 -0.14077
2005-12-08 14:51:14 51°21.01 3°0.04 -999 3.319248 32.086999 -0.14077
2005-12-08 14:52:13 51°20.866 2°59.776 -999 3.32049 32.099456 -0.14077
2005-12-08 14:53:14 51°20.714 2°59.507 -999 3.317592 32.076088 -0.14077
2005-12-08 14:54:13 51°20.568 2°59.242 -999 3.314798 32.048697 -0.107061
2005-12-08 14:55:14 51°20.416 2°58.967 -999 3.310865 32.01337 -0.14077
2005-12-08 14:56:14 51°20.284 2°58.674 -999 3.302171 31.932966 -0.14077
2005-12-08 14:57:14 51°20.168 2°58.363 -999 3.299584 31.918001 -0.14077
2005-12-08 14:58:14 51°20.048 2°58.056 -999 3.297617 31.900322 -0.14077
2005-12-08 14:59:14 51°19.931 2°57.754 -999 3.302688 31.945329 -0.107061
2005-12-08 15:00:14 51°19.815 2°57.453 -999 3.308174 31.985379 -0.073352
2005-12-08 15:01:14 51°19.673 2°57.184 -999 3.308484 31.991265 -0.039642
2005-12-08 15:02:13 51°19.524 2°56.928 -999 3.308174 31.986232 -0.039642
2005-12-08 15:03:13 51°19.366 2°56.678 -999 3.307863 31.979493 -0.039642
2005-12-08 15:04:14 51°19.201 2°56.422 -999 3.309622 31.989823 -0.005933
2005-12-08 15:05:14 51°19.041 2°56.168 -999 3.306104 31.960637 -0.005933
2005-12-08 15:06:14 51°18.881 2°55.912 -999 3.30569 31.953645 0.027777
2005-12-08 15:07:14 51°18.722 2°55.654 -999 3.307449 31.964831 -0.005933
2005-12-08 15:08:14 51°18.563 2°55.395 -999 3.307139 31.962357 -0.039642
2005-12-08 15:09:14 51°18.405 2°55.139 -999 3.315832 32.023092 0.027777
2005-12-08 15:10:14 51°18.238 2°54.895 -999 3.316971 32.026757 -0.005933
2005-12-08 15:11:14 51°18.07 2°54.651 -999 3.318316 32.040308 -0.073352
2005-12-08 15:12:14 51°17.903 2°54.412 -999 3.332702 32.15501 -0.039642
2005-12-08 15:13:14 51°17.734 2°54.183 -999 3.357854 32.342612 0.027777
2005-12-08 15:14:14 51°17.566 2°53.958 -999 3.368722 32.415803 0.027777
2005-12-08 15:15:14 51°17.395 2°53.736 -999 3.379487 32.498927 -0.005933
2005-12-08 15:16:14 51°17.214 2°53.541 -999 3.387768 32.572661 -0.005933
2005-12-08 15:17:14 51°17.035 2°53.344 -999 3.399879 32.681185 -0.039642
2005-12-08 15:18:13 51°16.853 2°53.16 -999 3.408885 32.756521 -0.107061
2005-12-08 15:19:14 51°16.661 2°52.982 -999 3.430107 32.919554 -0.14077
2005-12-08 15:20:14 51°16.45 2°52.912 -999 3.480214 33.263981 -0.208189
2005-12-08 15:21:14 51°16.276 2°52.869 -999 3.506823 33.426822 -0.241899
2005-12-08 15:22:14 51°16.218 2°52.8 -999 3.542856 33.647391 -0.275608
2005-12-08 15:23:14 51°16.202 2°52.773 -999 3.568432 33.796619 -0.309317
2005-12-08 15:24:14 51°16.189 2°52.767 -999 3.576095 33.842362 -0.309317
2005-12-08 15:25:14 51°16.175 2°52.759 -999 3.579927 33.859969 -0.309317
2005-12-08 15:26:14 51°16.145 2°52.725 -999 3.582516 33.878466 -0.309317
2005-12-08 15:27:14 51°16.059 2°52.747 -999 3.584172 33.883662 -0.343027
2005-12-08 15:28:14 51°15.901 2°52.866 -999 3.58614 33.893868 -0.343027
2005-12-08 15:29:14 51°15.708 2°53.015 -999 3.581998 33.852943 -0.343027
2005-12-08 15:30:14 51°15.516 2°53.169 -999 3.566879 33.754095 -0.309317
2005-12-08 15:31:14 51°15.319 2°53.322 -999 3.547618 33.636613 -0.309317
2005-12-08 15:32:14 51°15.133 2°53.498 -999 3.527635 33.551145 -0.309317
2005-12-08 15:33:14 51°14.963 2°53.706 -999 3.50558 33.394505 -0.309317
2005-12-08 15:34:14 51°14.814 2°53.956 -999 3.487564 33.239389 -0.309317
2005-12-08 15:35:13 51°14.695 2°54.242 -999 3.470378 33.10498 -0.275608
2005-12-08 15:36:14 51°14.577 2°54.537 -999 3.459714 32.98254 -0.241899
2005-12-08 15:37:14 51°14.456 2°54.822 -999 3.42265 32.586221 -0.309317
2005-12-08 15:38:14 51°14.345 2°55.088 -999 3.370581 32.115418 -0.275608
2005-12-08 15:39:14 51°14.281 2°55.239 -999 3.201888 30.455668 -0.208189
2005-12-08 15:40:14 51°14.225 2°55.308 -999 2.786108 26.235615 -0.14077
2005-12-08 15:41:14 51°14.164 2°55.361 -999 2.859825 26.970063 -0.17448
2005-12-08 15:42:14 51°14.065 2°55.437 -999 2.900669 27.348185 -0.14077
2005-12-08 15:43:14 51°13.953 2°55.526 -999 2.756748 25.882948 -0.107061
2005-12-08 15:44:14 51°13.833 2°55.626 -999 2.725013 25.549172 -0.073352
2005-12-08 15:45:14 51°13.724 2°55.762 -999 2.7062 25.38122 0.128905
2005-12-08 15:46:14 51°13.658 2°55.902 -999 2.430504 22.603721 0.027777
2005-12-08 15:47:14 51°13.616 2°56.02 -999 2.32597 21.538347 -0.073352
2005-12-08 15:48:14 51°13.599 2°56.092 -999 2.12296 19.546853 1.207606